»·PEaware :: AAL1315 KORD-KSTL

AAL1315 :: KORD-KSTL

FLIGHT INFORMATION

Flight Status: Arrived
Operator:
American Airlines
More flights by this operator :: More flights under this callsign
Pilot: Drew L. (13237)
Aircraft: MCDONNELL-DOUGLAS MD-83
(MD83)
More flights by this aircraft type
Origin: KORD Chicago-O'Hare Intl
United States
Destination: KSTL Lambert-St Louis Intl
United States
More flights between these airports :: More routes between these airports
Route: BACEN BLOKR RBS AARCH2
File this flight plan on PilotEdge
Remarks: PBN / A1B2 NAV / RNVD1E2A1 DAT / V DOF / 180218 REG / N883SB EET / KZKC0020 RMK / NRP SIMBRIEF
Altitude:
(Current/Filed)
24,000ft
Speed:
(Current/Filed)
458kts
Departed: 18-Feb-18 10:34 AM
Arrived: 18-Feb-18 11:30 AM
Distance/Time
Traveled:
224nm/0:56
Distance/Time
To Go:
Arrived

Flight Plot

Page will automatically refresh every two minutes.


Map Options




Map Legend


Flown Route
Filed Route
Departure Airport
Arrival Airport
Navaid (VOR, NDB)
Fix

Horizontal Profiles

Position Reports

Time Latitude Longitude Heading Altitude Ground
Speed
18-Feb-18 10:12 41.973598 -87.899791 284 673ft 0kts
18-Feb-18 10:13 41.973598 -87.899791 284 673ft 0kts
18-Feb-18 10:14 41.973598 -87.899791 284 672ft 0kts
18-Feb-18 10:15 41.973598 -87.899791 283 672ft 0kts
18-Feb-18 10:16 41.973598 -87.899791 283 672ft 0kts
18-Feb-18 10:17 41.973598 -87.899791 283 672ft 0kts
18-Feb-18 10:18 41.973598 -87.899791 283 672ft 0kts
18-Feb-18 10:19 41.973598 -87.899791 283 672ft 0kts
18-Feb-18 10:20 41.973598 -87.899791 283 672ft 0kts
18-Feb-18 10:21 41.973598 -87.899791 284 672ft 0kts
18-Feb-18 10:22 41.973598 -87.899791 284 672ft 0kts
18-Feb-18 10:23 41.973598 -87.899791 284 672ft 0kts
18-Feb-18 10:24 41.973598 -87.899791 284 672ft 0kts
18-Feb-18 10:25 41.973598 -87.899791 284 672ft 0kts
18-Feb-18 10:26 41.973598 -87.899791 284 672ft 0kts
18-Feb-18 10:27 41.973598 -87.899791 284 672ft 0kts
18-Feb-18 10:28 41.973550 -87.899554 285 672ft 2kts
18-Feb-18 10:29 41.973666 -87.898845 200 672ft 2kts
18-Feb-18 10:30 41.974098 -87.898957 135 672ft 1kts
18-Feb-18 10:31 41.974117 -87.898981 136 672ft 0kts
18-Feb-18 10:32 41.974107 -87.898969 136 672ft 1kts
18-Feb-18 10:33 41.973512 -87.898227 137 672ft 1kts
18-Feb-18 10:34 41.972728 -87.897278 149 672ft 0kts
18-Feb-18 10:35 41.971431 -87.901377 270 672ft 19kts
18-Feb-18 10:36 41.970408 -87.905782 269 672ft 11kts
18-Feb-18 10:37 41.970390 -87.915357 269 672ft 28kts
18-Feb-18 10:38 41.970379 -87.924252 269 672ft 19kts
18-Feb-18 10:39 41.970362 -87.929826 269 672ft 16kts
18-Feb-18 10:40 41.968995 -87.930698 91 672ft 0kts
18-Feb-18 10:41 41.968981 -87.922990 90 672ft 120kts
18-Feb-18 10:42 41.970271 -87.853064 89 3256ft 226kts
18-Feb-18 10:43 41.956331 -87.782187 172 6163ft 213kts
18-Feb-18 10:44 41.897395 -87.809661 206 9164ft 249kts
18-Feb-18 10:45 41.830578 -87.845220 206 11997ft 270kts
18-Feb-18 10:46 41.755321 -87.877610 202 14036ft 325kts
18-Feb-18 10:47 41.666100 -87.914041 203 17055ft 346kts
18-Feb-18 10:48 41.572600 -87.952121 205 19967ft 358kts
18-Feb-18 10:49 41.476637 -87.991152 206 22541ft 369kts
18-Feb-18 10:50 41.377479 -88.031453 206 24323ft 379kts
18-Feb-18 10:51 41.276713 -88.072325 206 24337ft 377kts
18-Feb-18 10:52 41.171036 -88.093459 194 24347ft 392kts
18-Feb-18 10:53 41.062698 -88.106070 195 24353ft 394kts
18-Feb-18 10:54 40.951500 -88.119495 194 24356ft 411kts
18-Feb-18 10:55 40.839184 -88.133004 194 24350ft 412kts
18-Feb-18 10:56 40.725137 -88.146771 194 24348ft 412kts
18-Feb-18 10:57 40.611233 -88.160527 194 24345ft 413kts
18-Feb-18 10:58 40.504271 -88.200290 209 24345ft 396kts
18-Feb-18 10:59 40.401016 -88.249678 208 24344ft 397kts
18-Feb-18 11:00 40.297272 -88.298635 208 24343ft 397kts
18-Feb-18 11:01 40.193568 -88.347538 208 24343ft 397kts
18-Feb-18 11:02 40.089898 -88.396433 208 24343ft 397kts
18-Feb-18 11:03 39.986425 -88.445283 208 24343ft 397kts
18-Feb-18 11:04 39.882795 -88.493284 208 24341ft 397kts
18-Feb-18 11:05 39.782455 -88.547445 224 24350ft 380kts
18-Feb-18 11:06 39.694080 -88.624471 220 24339ft 384kts
18-Feb-18 11:07 39.605479 -88.697604 220 24350ft 386kts
18-Feb-18 11:08 39.515158 -88.771862 220 24349ft 385kts
18-Feb-18 11:09 39.425030 -88.845982 220 24344ft 383kts
18-Feb-18 11:10 39.341713 -88.916847 225 23868ft 335kts
18-Feb-18 11:11 39.296297 -89.012483 240 22370ft 303kts
18-Feb-18 11:12 39.251613 -89.102351 238 20953ft 296kts
18-Feb-18 11:13 39.206081 -89.190250 237 19558ft 295kts
18-Feb-18 11:14 39.160701 -89.277454 237 18165ft 291kts
18-Feb-18 11:15 39.116099 -89.363211 237 16799ft 287kts
18-Feb-18 11:16 39.071968 -89.448171 237 15458ft 284kts
18-Feb-18 11:17 39.028294 -89.532368 237 14155ft 282kts
18-Feb-18 11:18 38.987795 -89.618296 247 13052ft 282kts
18-Feb-18 11:19 38.960731 -89.706678 246 13043ft 249kts
18-Feb-18 11:20 38.934697 -89.789183 246 12367ft 249kts
18-Feb-18 11:21 38.908583 -89.871797 246 11676ft 249kts
18-Feb-18 11:22 38.882724 -89.953715 245 11007ft 250kts
18-Feb-18 11:23 38.856580 -90.036225 245 10342ft 249kts
18-Feb-18 11:24 38.850088 -90.124678 270 9689ft 258kts
18-Feb-18 11:25 38.855035 -90.216579 268 9021ft 259kts
18-Feb-18 11:26 38.859210 -90.308794 268 8353ft 259kts
18-Feb-18 11:27 38.884343 -90.395773 293 7506ft 264kts
18-Feb-18 11:28 38.921758 -90.476622 296 6518ft 262kts
18-Feb-18 11:29 38.953095 -90.551739 258 5993ft 213kts
18-Feb-18 11:30 38.909425 -90.580290 188 5336ft 183kts
18-Feb-18 11:31 38.862908 -90.581411 140 4317ft 167kts
18-Feb-18 11:32 38.834860 -90.535998 125 3312ft 159kts
18-Feb-18 11:33 38.812887 -90.490788 124 2808ft 139kts
18-Feb-18 11:34 38.793366 -90.450901 124 2104ft 126kts
18-Feb-18 11:35 38.774877 -90.413282 124 1462ft 124kts
18-Feb-18 11:36 38.756444 -90.375560 123 806ft 128kts
18-Feb-18 11:37 38.742532 -90.347552 130 610ft 12kts
18-Feb-18 11:38 38.738316 -90.350329 211 610ft 28kts
18-Feb-18 11:39 38.739631 -90.356334 213 610ft 12kts
18-Feb-18 11:40 38.738406 -90.356499 182 610ft 0kts

Navigation Log

Ident Type
Flight plan parsing failed, navigation log unavailable